sensor_id;sensor_type;location;lat;lon;timestamp;P1;durP1;ratioP1;P2;durP2;ratioP2
80586;SDS011;69943;20.850;106.728;2023-05-10T00:02:26;5.70;;;3.30;;
80586;SDS011;69943;20.850;106.728;2023-05-10T00:04:55;6.90;;;3.30;;
80586;SDS011;69943;20.850;106.728;2023-05-10T00:07:24;6.10;;;3.30;;
80586;SDS011;69943;20.850;106.728;2023-05-10T00:09:53;7.10;;;3.40;;
80586;SDS011;69943;20.850;106.728;2023-05-10T00:12:22;5.60;;;3.30;;
80586;SDS011;69943;20.850;106.728;2023-05-10T00:14:51;6.20;;;2.80;;
80586;SDS011;69943;20.850;106.728;2023-05-10T00:17:20;6.40;;;3.50;;
80586;SDS011;69943;20.850;106.728;2023-05-10T00:19:49;6.70;;;3.30;;
80586;SDS011;69943;20.850;106.728;2023-05-10T00:22:18;6.50;;;3.30;;
80586;SDS011;69943;20.850;106.728;2023-05-10T00:24:47;6.50;;;3.20;;
80586;SDS011;69943;20.850;106.728;2023-05-10T00:27:16;5.00;;;3.50;;
80586;SDS011;69943;20.850;106.728;2023-05-10T00:29:45;4.90;;;2.90;;
80586;SDS011;69943;20.850;106.728;2023-05-10T00:32:14;6.40;;;4.30;;
80586;SDS011;69943;20.850;106.728;2023-05-10T00:34:44;5.00;;;3.50;;
80586;SDS011;69943;20.850;106.728;2023-05-10T00:37:13;5.10;;;3.10;;
80586;SDS011;69943;20.850;106.728;2023-05-10T00:39:42;8.00;;;3.80;;
80586;SDS011;69943;20.850;106.728;2023-05-10T00:42:11;7.60;;;3.40;;
80586;SDS011;69943;20.850;106.728;2023-05-10T00:44:40;6.00;;;3.20;;
80586;SDS011;69943;20.850;106.728;2023-05-10T00:47:09;7.00;;;3.10;;
80586;SDS011;69943;20.850;106.728;2023-05-10T00:52:08;6.80;;;3.50;;
80586;SDS011;69943;20.850;106.728;2023-05-10T00:54:37;7.00;;;3.30;;
80586;SDS011;69943;20.850;106.728;2023-05-10T00:57:06;6.10;;;3.20;;
80586;SDS011;69943;20.850;106.728;2023-05-10T00:59:36;5.90;;;3.20;;
80586;SDS011;69943;20.850;106.728;2023-05-10T01:02:05;14.30;;;3.80;;
80586;SDS011;69943;20.850;106.728;2023-05-10T01:04:34;6.70;;;3.70;;
80586;SDS011;69943;20.850;106.728;2023-05-10T01:07:03;6.00;;;3.40;;
80586;SDS011;69943;20.850;106.728;2023-05-10T01:09:32;8.00;;;3.40;;
80586;SDS011;69943;20.850;106.728;2023-05-10T01:14:31;7.90;;;3.20;;
80586;SDS011;69943;20.850;106.728;2023-05-10T01:17:00;6.10;;;3.00;;
80586;SDS011;69943;20.850;106.728;2023-05-10T01:19:30;7.30;;;3.60;;
80586;SDS011;69943;20.850;106.728;2023-05-10T01:22:05;7.70;;;3.90;;
80586;SDS011;69943;20.850;106.728;2023-05-10T01:24:42;5.70;;;3.10;;
80586;SDS011;69943;20.850;106.728;2023-05-10T01:33:35;17.10;;;4.10;;
80586;SDS011;69943;20.850;106.728;2023-05-10T01:38:57;6.10;;;3.30;;
80586;SDS011;69943;20.850;106.728;2023-05-10T01:41:54;5.30;;;3.00;;
80586;SDS011;69943;20.850;106.728;2023-05-10T01:47:27;7.90;;;3.50;;
80586;SDS011;69943;20.850;106.728;2023-05-10T01:50:06;9.70;;;3.70;;
80586;SDS011;69943;20.850;106.728;2023-05-10T01:52:40;8.00;;;3.30;;
80586;SDS011;69943;20.850;106.728;2023-05-10T01:55:13;6.00;;;3.30;;
80586;SDS011;69943;20.850;106.728;2023-05-10T01:57:43;8.90;;;3.80;;
80586;SDS011;69943;20.850;106.728;2023-05-10T02:00:13;6.00;;;3.10;;
80586;SDS011;69943;20.850;106.728;2023-05-10T02:02:47;5.00;;;3.20;;
80586;SDS011;69943;20.850;106.728;2023-05-10T02:05:17;10.90;;;3.70;;
80586;SDS011;69943;20.850;106.728;2023-05-10T02:07:47;4.80;;;3.50;;
80586;SDS011;69943;20.850;106.728;2023-05-10T02:10:16;9.40;;;3.60;;
80586;SDS011;69943;20.850;106.728;2023-05-10T02:12:47;10.80;;;3.60;;
80586;SDS011;69943;20.850;106.728;2023-05-10T02:15:20;7.10;;;3.30;;
80586;SDS011;69943;20.850;106.728;2023-05-10T02:17:50;6.30;;;3.10;;
80586;SDS011;69943;20.850;106.728;2023-05-10T02:20:23;7.60;;;3.00;;
80586;SDS011;69943;20.850;106.728;2023-05-10T02:22:54;7.40;;;3.10;;
80586;SDS011;69943;20.850;106.728;2023-05-10T02:25:24;7.80;;;3.60;;
80586;SDS011;69943;20.850;106.728;2023-05-10T02:27:54;6.50;;;3.90;;
80586;SDS011;69943;20.850;106.728;2023-05-10T02:30:24;4.80;;;3.30;;
80586;SDS011;69943;20.850;106.728;2023-05-10T02:35:22;5.90;;;3.50;;
80586;SDS011;69943;20.850;106.728;2023-05-10T02:37:51;7.00;;;2.70;;
80586;SDS011;69943;20.850;106.728;2023-05-10T02:40:21;6.80;;;3.00;;
80586;SDS011;69943;20.850;106.728;2023-05-10T02:42:52;10.50;;;3.70;;
80586;SDS011;69943;20.850;106.728;2023-05-10T02:45:24;6.40;;;3.20;;
80586;SDS011;69943;20.850;106.728;2023-05-10T02:47:55;7.00;;;4.20;;
80586;SDS011;69943;20.850;106.728;2023-05-10T02:50:25;7.60;;;4.10;;
80586;SDS011;69943;20.850;106.728;2023-05-10T02:52:59;7.40;;;3.60;;
80586;SDS011;69943;20.850;106.728;2023-05-10T02:55:38;7.30;;;3.40;;
80586;SDS011;69943;20.850;106.728;2023-05-10T02:58:09;6.50;;;3.30;;
80586;SDS011;69943;20.850;106.728;2023-05-10T03:00:38;7.90;;;3.90;;
80586;SDS011;69943;20.850;106.728;2023-05-10T03:03:07;8.90;;;4.00;;
80586;SDS011;69943;20.850;106.728;2023-05-10T03:05:36;6.40;;;3.40;;
80586;SDS011;69943;20.850;106.728;2023-05-10T03:08:05;7.20;;;3.80;;
80586;SDS011;69943;20.850;106.728;2023-05-10T03:10:47;12.10;;;3.70;;
80586;SDS011;69943;20.850;106.728;2023-05-10T03:13:29;7.70;;;3.40;;
80586;SDS011;69943;20.850;106.728;2023-05-10T03:16:07;10.30;;;3.50;;
80586;SDS011;69943;20.850;106.728;2023-05-10T03:18:48;6.10;;;3.20;;
80586;SDS011;69943;20.850;106.728;2023-05-10T03:21:23;8.50;;;3.70;;
80586;SDS011;69943;20.850;106.728;2023-05-10T03:24:07;6.90;;;3.20;;
80586;SDS011;69943;20.850;106.728;2023-05-10T03:26:39;9.30;;;3.90;;
80586;SDS011;69943;20.850;106.728;2023-05-10T03:29:08;5.80;;;3.60;;
80586;SDS011;69943;20.850;106.728;2023-05-10T03:31:39;8.70;;;3.90;;
80586;SDS011;69943;20.850;106.728;2023-05-10T03:34:08;6.60;;;3.50;;
80586;SDS011;69943;20.850;106.728;2023-05-10T03:36:38;7.90;;;4.00;;
80586;SDS011;69943;20.850;106.728;2023-05-10T03:39:07;7.40;;;3.90;;
80586;SDS011;69943;20.850;106.728;2023-05-10T03:41:40;7.70;;;3.40;;
80586;SDS011;69943;20.850;106.728;2023-05-10T03:44:11;10.80;;;3.50;;
80586;SDS011;69943;20.850;106.728;2023-05-10T03:46:40;6.50;;;3.60;;
80586;SDS011;69943;20.850;106.728;2023-05-10T03:49:09;8.50;;;3.60;;
80586;SDS011;69943;20.850;106.728;2023-05-10T03:51:38;8.50;;;3.50;;
80586;SDS011;69943;20.850;106.728;2023-05-10T03:54:08;7.80;;;3.60;;
80586;SDS011;69943;20.850;106.728;2023-05-10T03:56:36;9.60;;;3.90;;
80586;SDS011;69943;20.850;106.728;2023-05-10T03:59:05;10.40;;;4.30;;
80586;SDS011;69943;20.850;106.728;2023-05-10T04:01:36;7.90;;;4.40;;
80586;SDS011;69943;20.850;106.728;2023-05-10T04:04:05;10.90;;;4.00;;
80586;SDS011;69943;20.850;106.728;2023-05-10T04:06:34;5.70;;;3.30;;
80586;SDS011;69943;20.850;106.728;2023-05-10T04:09:03;9.60;;;4.00;;
80586;SDS011;69943;20.850;106.728;2023-05-10T04:11:32;7.70;;;3.20;;
80586;SDS011;69943;20.850;106.728;2023-05-10T04:14:01;8.20;;;3.60;;
80586;SDS011;69943;20.850;106.728;2023-05-10T04:16:30;9.60;;;3.70;;
80586;SDS011;69943;20.850;106.728;2023-05-10T04:18:59;5.80;;;3.80;;
80586;SDS011;69943;20.850;106.728;2023-05-10T04:21:28;8.00;;;3.90;;
80586;SDS011;69943;20.850;106.728;2023-05-10T04:23:59;8.00;;;4.40;;
80586;SDS011;69943;20.850;106.728;2023-05-10T04:26:28;10.50;;;4.10;;
80586;SDS011;69943;20.850;106.728;2023-05-10T04:28:57;7.80;;;3.90;;
80586;SDS011;69943;20.850;106.728;2023-05-10T04:31:26;6.00;;;3.80;;
80586;SDS011;69943;20.850;106.728;2023-05-10T04:33:56;7.30;;;4.00;;
80586;SDS011;69943;20.850;106.728;2023-05-10T04:36:25;9.10;;;3.90;;
80586;SDS011;69943;20.850;106.728;2023-05-10T04:38:58;8.90;;;4.20;;
80586;SDS011;69943;20.850;106.728;2023-05-10T04:41:28;7.10;;;4.30;;
80586;SDS011;69943;20.850;106.728;2023-05-10T04:46:25;6.40;;;3.50;;
80586;SDS011;69943;20.850;106.728;2023-05-10T04:48:56;9.70;;;4.40;;
80586;SDS011;69943;20.850;106.728;2023-05-10T04:51:25;6.80;;;3.60;;
80586;SDS011;69943;20.850;106.728;2023-05-10T04:53:54;10.20;;;3.80;;
80586;SDS011;69943;20.850;106.728;2023-05-10T04:56:23;6.50;;;4.30;;
80586;SDS011;69943;20.850;106.728;2023-05-10T04:58:53;7.90;;;4.50;;
80586;SDS011;69943;20.850;106.728;2023-05-10T05:01:22;9.60;;;4.40;;
80586;SDS011;69943;20.850;106.728;2023-05-10T05:03:50;6.70;;;3.90;;
80586;SDS011;69943;20.850;106.728;2023-05-10T05:06:20;7.80;;;4.30;;
80586;SDS011;69943;20.850;106.728;2023-05-10T05:08:49;10.80;;;4.40;;
80586;SDS011;69943;20.850;106.728;2023-05-10T05:11:18;6.10;;;3.80;;
80586;SDS011;69943;20.850;106.728;2023-05-10T05:13:48;5.80;;;3.90;;
80586;SDS011;69943;20.850;106.728;2023-05-10T05:18:46;8.80;;;3.80;;
80586;SDS011;69943;20.850;106.728;2023-05-10T05:21:15;10.40;;;4.30;;
80586;SDS011;69943;20.850;106.728;2023-05-10T05:23:45;7.30;;;4.30;;
80586;SDS011;69943;20.850;106.728;2023-05-10T05:26:14;9.10;;;4.30;;
80586;SDS011;69943;20.850;106.728;2023-05-10T05:28:43;7.80;;;3.70;;
80586;SDS011;69943;20.850;106.728;2023-05-10T05:31:12;8.10;;;3.80;;
80586;SDS011;69943;20.850;106.728;2023-05-10T05:33:41;6.90;;;3.50;;
80586;SDS011;69943;20.850;106.728;2023-05-10T05:36:10;9.30;;;4.30;;
80586;SDS011;69943;20.850;106.728;2023-05-10T05:38:39;11.10;;;4.40;;
80586;SDS011;69943;20.850;106.728;2023-05-10T05:41:08;6.90;;;4.10;;
80586;SDS011;69943;20.850;106.728;2023-05-10T05:43:37;7.70;;;3.50;;
80586;SDS011;69943;20.850;106.728;2023-05-10T05:46:06;9.10;;;4.80;;
80586;SDS011;69943;20.850;106.728;2023-05-10T05:48:35;10.80;;;3.80;;
80586;SDS011;69943;20.850;106.728;2023-05-10T05:51:04;10.50;;;4.30;;
80586;SDS011;69943;20.850;106.728;2023-05-10T05:53:34;8.10;;;4.00;;
80586;SDS011;69943;20.850;106.728;2023-05-10T05:56:03;11.50;;;4.40;;
80586;SDS011;69943;20.850;106.728;2023-05-10T05:58:32;8.30;;;3.90;;
80586;SDS011;69943;20.850;106.728;2023-05-10T06:01:01;7.70;;;4.00;;
80586;SDS011;69943;20.850;106.728;2023-05-10T06:03:30;9.40;;;4.60;;
80586;SDS011;69943;20.850;106.728;2023-05-10T06:06:00;9.40;;;4.50;;
80586;SDS011;69943;20.850;106.728;2023-05-10T06:08:29;7.70;;;3.70;;
80586;SDS011;69943;20.850;106.728;2023-05-10T06:10:58;8.30;;;4.40;;
80586;SDS011;69943;20.850;106.728;2023-05-10T06:13:27;8.70;;;3.80;;
80586;SDS011;69943;20.850;106.728;2023-05-10T06:15:59;6.40;;;3.90;;
80586;SDS011;69943;20.850;106.728;2023-05-10T06:20:57;11.90;;;4.80;;
80586;SDS011;69943;20.850;106.728;2023-05-10T06:23:26;9.70;;;4.60;;
80586;SDS011;69943;20.850;106.728;2023-05-10T06:25:55;10.10;;;3.80;;
80586;SDS011;69943;20.850;106.728;2023-05-10T06:28:24;10.40;;;4.40;;
80586;SDS011;69943;20.850;106.728;2023-05-10T06:30:53;9.00;;;4.60;;
80586;SDS011;69943;20.850;106.728;2023-05-10T06:33:22;9.60;;;4.60;;
80586;SDS011;69943;20.850;106.728;2023-05-10T06:35:51;10.50;;;4.70;;
80586;SDS011;69943;20.850;106.728;2023-05-10T06:38:20;9.60;;;5.00;;
80586;SDS011;69943;20.850;106.728;2023-05-10T06:40:49;8.60;;;3.50;;
80586;SDS011;69943;20.850;106.728;2023-05-10T06:43:18;8.40;;;3.80;;
80586;SDS011;69943;20.850;106.728;2023-05-10T06:45:47;11.60;;;5.40;;
80586;SDS011;69943;20.850;106.728;2023-05-10T06:48:17;8.30;;;4.70;;
80586;SDS011;69943;20.850;106.728;2023-05-10T06:50:46;10.70;;;4.40;;
80586;SDS011;69943;20.850;106.728;2023-05-10T06:53:15;8.70;;;4.80;;
80586;SDS011;69943;20.850;106.728;2023-05-10T06:55:44;12.30;;;5.00;;
80586;SDS011;69943;20.850;106.728;2023-05-10T06:58:13;10.50;;;4.30;;
80586;SDS011;69943;20.850;106.728;2023-05-10T07:00:42;10.50;;;4.40;;
80586;SDS011;69943;20.850;106.728;2023-05-10T07:03:12;9.40;;;4.70;;
80586;SDS011;69943;20.850;106.728;2023-05-10T07:05:42;11.20;;;4.80;;
80586;SDS011;69943;20.850;106.728;2023-05-10T07:08:11;11.30;;;5.00;;
80586;SDS011;69943;20.850;106.728;2023-05-10T07:10:41;11.10;;;4.40;;
80586;SDS011;69943;20.850;106.728;2023-05-10T07:15:38;10.70;;;4.10;;
80586;SDS011;69943;20.850;106.728;2023-05-10T07:18:07;13.10;;;5.50;;
80586;SDS011;69943;20.850;106.728;2023-05-10T07:20:37;10.20;;;4.40;;
80586;SDS011;69943;20.850;106.728;2023-05-10T07:23:06;12.20;;;5.30;;
80586;SDS011;69943;20.850;106.728;2023-05-10T07:25:35;8.30;;;4.20;;
80586;SDS011;69943;20.850;106.728;2023-05-10T07:28:04;8.40;;;4.80;;
80586;SDS011;69943;20.850;106.728;2023-05-10T07:30:32;10.10;;;4.40;;
80586;SDS011;69943;20.850;106.728;2023-05-10T07:33:01;9.30;;;4.40;;
80586;SDS011;69943;20.850;106.728;2023-05-10T07:35:30;9.40;;;5.00;;
80586;SDS011;69943;20.850;106.728;2023-05-10T07:37:59;10.90;;;4.90;;
80586;SDS011;69943;20.850;106.728;2023-05-10T07:40:28;8.20;;;4.80;;
80586;SDS011;69943;20.850;106.728;2023-05-10T07:42:59;8.30;;;4.10;;
80586;SDS011;69943;20.850;106.728;2023-05-10T07:45:29;7.30;;;4.40;;
80586;SDS011;69943;20.850;106.728;2023-05-10T07:47:58;9.20;;;4.70;;
80586;SDS011;69943;20.850;106.728;2023-05-10T07:50:27;9.50;;;4.10;;
80586;SDS011;69943;20.850;106.728;2023-05-10T07:52:56;7.40;;;3.80;;
80586;SDS011;69943;20.850;106.728;2023-05-10T07:55:25;9.20;;;4.30;;
80586;SDS011;69943;20.850;106.728;2023-05-10T07:57:54;10.80;;;4.20;;
80586;SDS011;69943;20.850;106.728;2023-05-10T08:00:23;9.10;;;4.60;;
80586;SDS011;69943;20.850;106.728;2023-05-10T08:02:53;13.80;;;4.90;;
80586;SDS011;69943;20.850;106.728;2023-05-10T08:05:22;8.90;;;4.40;;
80586;SDS011;69943;20.850;106.728;2023-05-10T08:07:51;12.50;;;4.70;;
80586;SDS011;69943;20.850;106.728;2023-05-10T08:10:20;10.10;;;4.50;;
80586;SDS011;69943;20.850;106.728;2023-05-10T08:12:49;12.50;;;5.00;;
80586;SDS011;69943;20.850;106.728;2023-05-10T08:15:18;9.80;;;4.60;;
80586;SDS011;69943;20.850;106.728;2023-05-10T08:17:47;14.10;;;5.20;;
80586;SDS011;69943;20.850;106.728;2023-05-10T08:20:16;9.20;;;4.60;;
80586;SDS011;69943;20.850;106.728;2023-05-10T08:22:46;10.70;;;5.10;;
80586;SDS011;69943;20.850;106.728;2023-05-10T08:25:15;7.10;;;4.60;;
80586;SDS011;69943;20.850;106.728;2023-05-10T08:27:45;10.60;;;4.90;;
80586;SDS011;69943;20.850;106.728;2023-05-10T08:30:14;11.60;;;4.50;;
80586;SDS011;69943;20.850;106.728;2023-05-10T08:32:43;10.40;;;4.50;;
80586;SDS011;69943;20.850;106.728;2023-05-10T08:35:12;7.80;;;4.40;;
80586;SDS011;69943;20.850;106.728;2023-05-10T08:37:41;9.00;;;4.70;;
80586;SDS011;69943;20.850;106.728;2023-05-10T08:40:10;11.20;;;4.30;;
80586;SDS011;69943;20.850;106.728;2023-05-10T08:42:40;8.10;;;4.30;;
80586;SDS011;69943;20.850;106.728;2023-05-10T08:45:13;7.90;;;4.10;;
80586;SDS011;69943;20.850;106.728;2023-05-10T08:47:42;8.80;;;4.50;;
80586;SDS011;69943;20.850;106.728;2023-05-10T08:50:11;8.60;;;4.50;;
80586;SDS011;69943;20.850;106.728;2023-05-10T08:52:40;9.70;;;5.10;;
80586;SDS011;69943;20.850;106.728;2023-05-10T08:55:09;10.40;;;4.80;;
80586;SDS011;69943;20.850;106.728;2023-05-10T08:57:38;12.10;;;5.10;;
80586;SDS011;69943;20.850;106.728;2023-05-10T09:00:07;7.60;;;3.80;;
80586;SDS011;69943;20.850;106.728;2023-05-10T09:02:37;10.40;;;4.90;;
80586;SDS011;69943;20.850;106.728;2023-05-10T09:05:06;8.50;;;4.30;;
80586;SDS011;69943;20.850;106.728;2023-05-10T09:07:36;8.10;;;4.30;;
80586;SDS011;69943;20.850;106.728;2023-05-10T09:10:05;11.80;;;4.50;;
80586;SDS011;69943;20.850;106.728;2023-05-10T09:12:35;11.80;;;5.20;;
80586;SDS011;69943;20.850;106.728;2023-05-10T09:15:05;12.60;;;4.80;;
80586;SDS011;69943;20.850;106.728;2023-05-10T09:17:35;9.60;;;4.80;;
80586;SDS011;69943;20.850;106.728;2023-05-10T09:20:09;12.10;;;5.10;;
80586;SDS011;69943;20.850;106.728;2023-05-10T09:23:05;10.60;;;5.20;;
80586;SDS011;69943;20.850;106.728;2023-05-10T09:25:48;10.40;;;5.00;;
80586;SDS011;69943;20.850;106.728;2023-05-10T09:28:50;10.90;;;5.10;;
80586;SDS011;69943;20.850;106.728;2023-05-10T09:31:46;10.60;;;4.90;;
80586;SDS011;69943;20.850;106.728;2023-05-10T09:34:31;10.80;;;5.40;;
80586;SDS011;69943;20.850;106.728;2023-05-10T09:37:11;9.10;;;5.50;;
80586;SDS011;69943;20.850;106.728;2023-05-10T09:40:04;12.10;;;5.50;;
80586;SDS011;69943;20.850;106.728;2023-05-10T09:42:54;14.20;;;5.50;;
80586;SDS011;69943;20.850;106.728;2023-05-10T09:45:36;10.40;;;5.50;;
80586;SDS011;69943;20.850;106.728;2023-05-10T09:48:09;10.40;;;5.10;;
80586;SDS011;69943;20.850;106.728;2023-05-10T09:50:38;8.80;;;5.00;;
80586;SDS011;69943;20.850;106.728;2023-05-10T09:53:07;10.90;;;6.20;;
80586;SDS011;69943;20.850;106.728;2023-05-10T09:55:43;13.40;;;5.70;;
80586;SDS011;69943;20.850;106.728;2023-05-10T09:58:13;11.10;;;4.90;;
80586;SDS011;69943;20.850;106.728;2023-05-10T10:00:43;10.70;;;5.10;;
80586;SDS011;69943;20.850;106.728;2023-05-10T10:03:19;15.60;;;6.20;;
80586;SDS011;69943;20.850;106.728;2023-05-10T10:05:49;10.30;;;4.40;;
80586;SDS011;69943;20.850;106.728;2023-05-10T10:08:22;13.80;;;5.50;;
80586;SDS011;69943;20.850;106.728;2023-05-10T10:10:54;11.80;;;4.90;;
80586;SDS011;69943;20.850;106.728;2023-05-10T10:13:44;11.80;;;4.80;;
80586;SDS011;69943;20.850;106.728;2023-05-10T10:16:23;9.10;;;5.10;;
80586;SDS011;69943;20.850;106.728;2023-05-10T10:18:57;9.80;;;5.50;;
80586;SDS011;69943;20.850;106.728;2023-05-10T10:21:43;10.00;;;4.70;;
80586;SDS011;69943;20.850;106.728;2023-05-10T10:24:20;10.80;;;4.60;;
80586;SDS011;69943;20.850;106.728;2023-05-10T10:26:49;9.60;;;5.00;;
80586;SDS011;69943;20.850;106.728;2023-05-10T10:29:23;14.50;;;5.50;;
80586;SDS011;69943;20.850;106.728;2023-05-10T10:32:09;14.60;;;5.30;;
80586;SDS011;69943;20.850;106.728;2023-05-10T10:34:59;9.60;;;5.40;;
80586;SDS011;69943;20.850;106.728;2023-05-10T10:37:50;9.40;;;4.60;;
80586;SDS011;69943;20.850;106.728;2023-05-10T10:40:40;10.20;;;5.30;;
80586;SDS011;69943;20.850;106.728;2023-05-10T10:43:27;10.10;;;4.50;;
80586;SDS011;69943;20.850;106.728;2023-05-10T10:46:15;8.30;;;4.30;;
80586;SDS011;69943;20.850;106.728;2023-05-10T10:48:49;13.00;;;5.20;;
80586;SDS011;69943;20.850;106.728;2023-05-10T10:51:20;9.90;;;5.40;;
80586;SDS011;69943;20.850;106.728;2023-05-10T10:53:49;11.30;;;4.60;;
80586;SDS011;69943;20.850;106.728;2023-05-10T10:56:18;12.70;;;6.50;;
80586;SDS011;69943;20.850;106.728;2023-05-10T10:58:51;10.00;;;5.40;;
80586;SDS011;69943;20.850;106.728;2023-05-10T11:01:32;12.00;;;4.90;;
80586;SDS011;69943;20.850;106.728;2023-05-10T11:06:47;12.30;;;5.20;;
80586;SDS011;69943;20.850;106.728;2023-05-10T11:09:16;10.50;;;5.20;;
80586;SDS011;69943;20.850;106.728;2023-05-10T11:11:52;14.30;;;5.40;;
80586;SDS011;69943;20.850;106.728;2023-05-10T11:14:28;10.90;;;5.50;;
80586;SDS011;69943;20.850;106.728;2023-05-10T11:17:01;11.30;;;5.20;;
80586;SDS011;69943;20.850;106.728;2023-05-10T11:19:30;13.30;;;6.10;;
80586;SDS011;69943;20.850;106.728;2023-05-10T11:24:34;12.80;;;5.30;;
80586;SDS011;69943;20.850;106.728;2023-05-10T11:27:03;8.00;;;4.80;;
80586;SDS011;69943;20.850;106.728;2023-05-10T11:29:33;8.90;;;4.30;;
80586;SDS011;69943;20.850;106.728;2023-05-10T11:32:02;15.50;;;6.40;;
80586;SDS011;69943;20.850;106.728;2023-05-10T11:34:36;8.30;;;4.40;;
80586;SDS011;69943;20.850;106.728;2023-05-10T11:37:07;7.90;;;5.10;;
80586;SDS011;69943;20.850;106.728;2023-05-10T11:39:37;8.50;;;4.90;;
80586;SDS011;69943;20.850;106.728;2023-05-10T11:42:15;12.20;;;5.70;;
80586;SDS011;69943;20.850;106.728;2023-05-10T11:44:45;11.60;;;5.50;;
80586;SDS011;69943;20.850;106.728;2023-05-10T11:47:14;9.00;;;4.40;;
80586;SDS011;69943;20.850;106.728;2023-05-10T11:49:44;10.70;;;5.40;;
80586;SDS011;69943;20.850;106.728;2023-05-10T11:52:16;7.40;;;5.00;;
80586;SDS011;69943;20.850;106.728;2023-05-10T11:54:59;13.60;;;5.90;;
80586;SDS011;69943;20.850;106.728;2023-05-10T11:57:32;13.50;;;5.30;;
80586;SDS011;69943;20.850;106.728;2023-05-10T12:02:31;8.70;;;4.70;;
80586;SDS011;69943;20.850;106.728;2023-05-10T12:05:06;12.70;;;5.60;;
80586;SDS011;69943;20.850;106.728;2023-05-10T12:07:35;10.60;;;4.90;;
80586;SDS011;69943;20.850;106.728;2023-05-10T12:12:37;11.00;;;5.10;;
80586;SDS011;69943;20.850;106.728;2023-05-10T12:15:20;13.90;;;5.40;;
80586;SDS011;69943;20.850;106.728;2023-05-10T12:20:33;11.50;;;5.80;;
80586;SDS011;69943;20.850;106.728;2023-05-10T12:23:14;11.00;;;5.30;;
80586;SDS011;69943;20.850;106.728;2023-05-10T12:25:49;10.20;;;5.10;;
80586;SDS011;69943;20.850;106.728;2023-05-10T12:28:24;11.50;;;5.40;;
80586;SDS011;69943;20.850;106.728;2023-05-10T12:30:57;11.70;;;5.40;;
80586;SDS011;69943;20.850;106.728;2023-05-10T12:33:26;9.80;;;4.80;;
80586;SDS011;69943;20.850;106.728;2023-05-10T12:35:55;12.10;;;5.90;;
80586;SDS011;69943;20.850;106.728;2023-05-10T12:38:43;10.40;;;5.10;;
80586;SDS011;69943;20.850;106.728;2023-05-10T12:41:16;10.70;;;5.60;;
80586;SDS011;69943;20.850;106.728;2023-05-10T12:43:46;12.00;;;5.60;;
80586;SDS011;69943;20.850;106.728;2023-05-10T12:48:45;10.20;;;5.10;;
80586;SDS011;69943;20.850;106.728;2023-05-10T12:51:19;11.00;;;5.00;;
80586;SDS011;69943;20.850;106.728;2023-05-10T12:53:56;11.20;;;5.50;;
80586;SDS011;69943;20.850;106.728;2023-05-10T12:56:28;11.30;;;4.90;;
80586;SDS011;69943;20.850;106.728;2023-05-10T12:59:05;15.50;;;5.60;;
80586;SDS011;69943;20.850;106.728;2023-05-10T13:04:02;10.60;;;5.10;;
80586;SDS011;69943;20.850;106.728;2023-05-10T13:06:32;15.30;;;6.50;;
80586;SDS011;69943;20.850;106.728;2023-05-10T13:09:01;8.70;;;5.60;;
80586;SDS011;69943;20.850;106.728;2023-05-10T13:11:30;11.60;;;5.60;;
80586;SDS011;69943;20.850;106.728;2023-05-10T13:13:59;10.40;;;5.70;;
80586;SDS011;69943;20.850;106.728;2023-05-10T13:16:28;8.80;;;4.70;;
80586;SDS011;69943;20.850;106.728;2023-05-10T13:18:57;16.90;;;5.60;;
80586;SDS011;69943;20.850;106.728;2023-05-10T13:21:33;12.40;;;5.30;;
80586;SDS011;69943;20.850;106.728;2023-05-10T13:24:02;13.60;;;5.60;;
80586;SDS011;69943;20.850;106.728;2023-05-10T13:26:31;12.10;;;5.60;;
80586;SDS011;69943;20.850;106.728;2023-05-10T13:29:00;12.40;;;5.20;;
80586;SDS011;69943;20.850;106.728;2023-05-10T13:31:29;10.30;;;4.70;;
80586;SDS011;69943;20.850;106.728;2023-05-10T13:33:58;13.20;;;5.70;;
80586;SDS011;69943;20.850;106.728;2023-05-10T13:36:27;10.50;;;5.40;;
80586;SDS011;69943;20.850;106.728;2023-05-10T13:38:57;9.20;;;5.00;;
80586;SDS011;69943;20.850;106.728;2023-05-10T13:41:26;10.30;;;5.40;;
80586;SDS011;69943;20.850;106.728;2023-05-10T13:43:55;11.40;;;4.80;;
80586;SDS011;69943;20.850;106.728;2023-05-10T13:46:24;9.10;;;5.00;;
80586;SDS011;69943;20.850;106.728;2023-05-10T13:48:53;11.00;;;4.80;;
80586;SDS011;69943;20.850;106.728;2023-05-10T13:51:22;10.20;;;5.40;;
80586;SDS011;69943;20.850;106.728;2023-05-10T13:53:51;10.10;;;5.10;;
80586;SDS011;69943;20.850;106.728;2023-05-10T13:56:20;8.70;;;4.90;;
80586;SDS011;69943;20.850;106.728;2023-05-10T13:58:49;13.90;;;5.90;;
80586;SDS011;69943;20.850;106.728;2023-05-10T14:01:18;10.20;;;5.50;;
80586;SDS011;69943;20.850;106.728;2023-05-10T14:03:47;14.10;;;5.30;;
80586;SDS011;69943;20.850;106.728;2023-05-10T14:06:23;8.70;;;4.70;;
80586;SDS011;69943;20.850;106.728;2023-05-10T14:09:10;10.60;;;5.50;;
80586;SDS011;69943;20.850;106.728;2023-05-10T14:11:45;8.30;;;5.20;;
80586;SDS011;69943;20.850;106.728;2023-05-10T14:14:17;8.90;;;5.10;;
80586;SDS011;69943;20.850;106.728;2023-05-10T14:16:47;11.10;;;5.10;;
80586;SDS011;69943;20.850;106.728;2023-05-10T14:19:16;9.30;;;5.40;;
80586;SDS011;69943;20.850;106.728;2023-05-10T14:21:46;10.90;;;5.20;;
80586;SDS011;69943;20.850;106.728;2023-05-10T14:24:18;7.80;;;4.60;;
80586;SDS011;69943;20.850;106.728;2023-05-10T14:26:50;9.50;;;4.80;;
80586;SDS011;69943;20.850;106.728;2023-05-10T14:29:41;9.90;;;4.80;;
80586;SDS011;69943;20.850;106.728;2023-05-10T14:32:23;11.90;;;5.20;;
80586;SDS011;69943;20.850;106.728;2023-05-10T14:34:59;12.40;;;4.60;;
80586;SDS011;69943;20.850;106.728;2023-05-10T14:37:28;9.60;;;5.10;;
80586;SDS011;69943;20.850;106.728;2023-05-10T14:39:59;11.10;;;4.90;;
80586;SDS011;69943;20.850;106.728;2023-05-10T14:42:28;9.60;;;4.60;;
80586;SDS011;69943;20.850;106.728;2023-05-10T14:44:58;9.30;;;5.00;;
80586;SDS011;69943;20.850;106.728;2023-05-10T14:47:30;9.00;;;4.60;;
80586;SDS011;69943;20.850;106.728;2023-05-10T14:50:07;10.30;;;5.20;;
80586;SDS011;69943;20.850;106.728;2023-05-10T14:52:49;8.70;;;4.20;;
80586;SDS011;69943;20.850;106.728;2023-05-10T14:55:27;9.20;;;4.40;;
80586;SDS011;69943;20.850;106.728;2023-05-10T14:57:56;9.30;;;4.70;;
80586;SDS011;69943;20.850;106.728;2023-05-10T15:00:26;11.10;;;4.40;;
80586;SDS011;69943;20.850;106.728;2023-05-10T15:02:57;11.60;;;5.30;;
80586;SDS011;69943;20.850;106.728;2023-05-10T15:05:28;10.30;;;4.50;;
80586;SDS011;69943;20.850;106.728;2023-05-10T15:08:05;11.80;;;4.70;;
80586;SDS011;69943;20.850;106.728;2023-05-10T15:10:47;9.10;;;4.90;;
80586;SDS011;69943;20.850;106.728;2023-05-10T15:13:18;9.90;;;4.70;;
80586;SDS011;69943;20.850;106.728;2023-05-10T15:15:48;10.70;;;5.00;;
80586;SDS011;69943;20.850;106.728;2023-05-10T15:18:17;12.80;;;5.60;;
80586;SDS011;69943;20.850;106.728;2023-05-10T15:20:46;10.20;;;4.90;;
80586;SDS011;69943;20.850;106.728;2023-05-10T15:23:15;11.90;;;4.40;;
80586;SDS011;69943;20.850;106.728;2023-05-10T15:25:45;8.40;;;4.10;;
80586;SDS011;69943;20.850;106.728;2023-05-10T15:28:16;10.90;;;4.90;;
80586;SDS011;69943;20.850;106.728;2023-05-10T15:30:51;8.50;;;4.40;;